NKS2518 KIAH-KTPA
Flight info
| Callsign | NKS2518 |
|---|---|
| Flight time | 1h 36m |
| Altitude | 39000 |
| Route | GUMBY3 LLA LEV Y280 CHRGE RAYZZ3 |
| Aircraft | A319/M-SDE3FGHIRWY/LB1 |
Departure
| Time | 2026-05-08 04:03 |
|---|---|
| Airport | George Bush Intercontinental Airport (KIAH) |
Arrival
| Time | 2026-05-08 05:39 |
|---|---|
| Airport | Tampa International Airport (KTPA) |
| Time | Latitude | Longitude | Altitude | Speed | Heading |
|---|---|---|---|---|---|
| 2026-05-08 03:32 | 29.98482 | -95.34896 | 100 ft | 0 kts | 312° |
| 2026-05-08 03:51 | 29.98479 | -95.34892 | 100 ft | 2 kts | 312° |
| 2026-05-08 03:51 | 29.98472 | -95.34884 | 100 ft | 1 kts | 312° |
| 2026-05-08 03:52 | 29.98465 | -95.34869 | 100 ft | 2 kts | 281° |
| 2026-05-08 03:52 | 29.98465 | -95.34851 | 100 ft | 2 kts | 256° |
| 2026-05-08 03:52 | 29.98471 | -95.34835 | 100 ft | 2 kts | 231° |
| 2026-05-08 03:52 | 29.98476 | -95.34829 | 100 ft | 1 kts | 216° |
| 2026-05-08 03:53 | 29.98480 | -95.34825 | 100 ft | 0 kts | 219° |
| 2026-05-08 03:56 | 29.98479 | -95.34827 | 100 ft | 2 kts | 217° |
| 2026-05-08 03:56 | 29.98420 | -95.34831 | 100 ft | 10 kts | 179° |
| 2026-05-08 03:56 | 29.98379 | -95.34875 | 100 ft | 11 kts | 277° |
| 2026-05-08 03:56 | 29.98382 | -95.34971 | 99 ft | 13 kts | 270° |
| 2026-05-08 03:57 | 29.98383 | -95.35091 | 99 ft | 15 kts | 270° |
| 2026-05-08 03:57 | 29.98384 | -95.35217 | 99 ft | 13 kts | 271° |
| 2026-05-08 03:57 | 29.98389 | -95.35324 | 99 ft | 14 kts | 314° |
| 2026-05-08 03:57 | 29.98479 | -95.35382 | 99 ft | 15 kts | 331° |
| 2026-05-08 03:58 | 29.98576 | -95.35442 | 99 ft | 15 kts | 332° |
| 2026-05-08 03:58 | 29.98675 | -95.35503 | 100 ft | 16 kts | 332° |
| 2026-05-08 03:58 | 29.98777 | -95.35564 | 100 ft | 16 kts | 333° |
| 2026-05-08 03:58 | 29.98844 | -95.35626 | 100 ft | 12 kts | 279° |
| 2026-05-08 03:59 | 29.98827 | -95.35681 | 100 ft | 0 kts | 242° |
| 2026-05-08 04:01 | 29.98811 | -95.35716 | 100 ft | 9 kts | 242° |
| 2026-05-08 04:01 | 29.98773 | -95.35776 | 100 ft | 7 kts | 191° |
| 2026-05-08 04:02 | 29.98755 | -95.35768 | 100 ft | 0 kts | 151° |
| 2026-05-08 04:02 | 29.98753 | -95.35767 | 100 ft | 4 kts | 151° |
| 2026-05-08 04:02 | 29.98501 | -95.35611 | 99 ft | 79 kts | 152° |
| 2026-05-08 04:02 | 29.97796 | -95.35181 | 98 ft | 145 kts | 151° |
| 2026-05-08 04:03 | 29.96790 | -95.34569 | 384 ft | 172 kts | 150° |
| 2026-05-08 04:03 | 29.95186 | -95.32809 | 1908 ft | 162 kts | 104° |
| 2026-05-08 04:03 | 29.94980 | -95.31511 | 2424 ft | 172 kts | 98° |
| 2026-05-08 04:04 | 29.94799 | -95.30084 | 2873 ft | 188 kts | 100° |
| 2026-05-08 04:04 | 29.94536 | -95.28526 | 3335 ft | 207 kts | 103° |
| 2026-05-08 04:04 | 29.94182 | -95.26840 | 3794 ft | 227 kts | 105° |
| 2026-05-08 04:04 | 29.93845 | -95.25011 | 4128 ft | 243 kts | 99° |
| 2026-05-08 04:05 | 29.93730 | -95.23037 | 4911 ft | 252 kts | 92° |
| 2026-05-08 04:05 | 29.93744 | -95.20948 | 5533 ft | 269 kts | 91° |
| 2026-05-08 04:05 | 29.93783 | -95.18787 | 6343 ft | 276 kts | 91° |
| 2026-05-08 04:05 | 29.93821 | -95.16576 | 7198 ft | 282 kts | 91° |
| 2026-05-08 04:06 | 29.93855 | -95.14289 | 7986 ft | 289 kts | 90° |
| 2026-05-08 04:06 | 29.93890 | -95.11940 | 8746 ft | 296 kts | 90° |
| 2026-05-08 04:06 | 29.93910 | -95.09573 | 9485 ft | 302 kts | 92° |
| 2026-05-08 04:06 | 29.93681 | -95.07141 | 10224 ft | 308 kts | 102° |
| 2026-05-08 04:07 | 29.93119 | -95.04710 | 10711 ft | 322 kts | 109° |
| 2026-05-08 04:07 | 29.92385 | -95.02204 | 11121 ft | 338 kts | 110° |
| 2026-05-08 04:07 | 29.91589 | -94.99582 | 11748 ft | 346 kts | 110° |
| 2026-05-08 04:07 | 29.90802 | -94.96978 | 12513 ft | 349 kts | 110° |
| 2026-05-08 04:08 | 29.90002 | -94.94312 | 13191 ft | 354 kts | 110° |
| 2026-05-08 04:08 | 29.89195 | -94.91602 | 13849 ft | 360 kts | 110° |
| 2026-05-08 04:08 | 29.88384 | -94.88861 | 14499 ft | 365 kts | 111° |
| 2026-05-08 04:08 | 29.87552 | -94.86056 | 15138 ft | 370 kts | 111° |
| 2026-05-08 04:09 | 29.86716 | -94.83240 | 15744 ft | 376 kts | 111° |
| 2026-05-08 04:09 | 29.85868 | -94.80378 | 16355 ft | 381 kts | 112° |
| 2026-05-08 04:09 | 29.85012 | -94.77494 | 16937 ft | 386 kts | 112° |
| 2026-05-08 04:09 | 29.84145 | -94.74579 | 17491 ft | 392 kts | 112° |
| 2026-05-08 04:10 | 29.83251 | -94.71575 | 18098 ft | 396 kts | 112° |
| 2026-05-08 04:10 | 29.82358 | -94.68584 | 18707 ft | 400 kts | 113° |
| 2026-05-08 04:10 | 29.81449 | -94.65543 | 19284 ft | 404 kts | 113° |
| 2026-05-08 04:10 | 29.80535 | -94.62483 | 19846 ft | 409 kts | 113° |
| 2026-05-08 04:11 | 29.79609 | -94.59379 | 20414 ft | 413 kts | 113° |
| 2026-05-08 04:11 | 29.78663 | -94.56208 | 20982 ft | 416 kts | 113° |
| 2026-05-08 04:11 | 29.77727 | -94.53081 | 21532 ft | 420 kts | 113° |
| 2026-05-08 04:11 | 29.76766 | -94.49867 | 22076 ft | 423 kts | 113° |
| 2026-05-08 04:12 | 29.75800 | -94.46643 | 22596 ft | 427 kts | 113° |
| 2026-05-08 04:12 | 29.74823 | -94.43392 | 23107 ft | 431 kts | 113° |
| 2026-05-08 04:12 | 29.73844 | -94.40131 | 23615 ft | 435 kts | 113° |
| 2026-05-08 04:12 | 29.72886 | -94.36843 | 24115 ft | 440 kts | 111° |
| 2026-05-08 04:13 | 29.72095 | -94.33422 | 24565 ft | 447 kts | 107° |
| 2026-05-08 04:13 | 29.71542 | -94.29888 | 25026 ft | 452 kts | 102° |
| 2026-05-08 04:13 | 29.71133 | -94.26290 | 25490 ft | 456 kts | 100° |
| 2026-05-08 04:13 | 29.70755 | -94.22657 | 25913 ft | 461 kts | 100° |
| 2026-05-08 04:14 | 29.70373 | -94.19033 | 26332 ft | 464 kts | 100° |
| 2026-05-08 04:14 | 29.69971 | -94.15318 | 26758 ft | 468 kts | 100° |
| 2026-05-08 04:14 | 29.69554 | -94.11594 | 27148 ft | 472 kts | 100° |
| 2026-05-08 04:14 | 29.69135 | -94.07865 | 27530 ft | 476 kts | 100° |
| 2026-05-08 04:15 | 29.68774 | -94.04054 | 27916 ft | 481 kts | 97° |
| 2026-05-08 04:15 | 29.68612 | -94.00234 | 28298 ft | 485 kts | 93° |
| 2026-05-08 04:15 | 29.68565 | -93.96301 | 28679 ft | 489 kts | 92° |
| 2026-05-08 04:15 | 29.68541 | -93.92427 | 29025 ft | 493 kts | 92° |
| 2026-05-08 04:16 | 29.68523 | -93.88440 | 29400 ft | 497 kts | 92° |
| 2026-05-08 04:16 | 29.68497 | -93.84499 | 29789 ft | 499 kts | 92° |
| 2026-05-08 04:16 | 29.68466 | -93.80502 | 30176 ft | 502 kts | 92° |
| 2026-05-08 04:16 | 29.68431 | -93.76494 | 30575 ft | 504 kts | 92° |
| 2026-05-08 04:17 | 29.68394 | -93.72437 | 30948 ft | 507 kts | 93° |
| 2026-05-08 04:17 | 29.68352 | -93.68399 | 31290 ft | 509 kts | 93° |
| 2026-05-08 04:17 | 29.68307 | -93.64333 | 31642 ft | 512 kts | 93° |
| 2026-05-08 04:17 | 29.68262 | -93.60249 | 32005 ft | 514 kts | 92° |
| 2026-05-08 04:18 | 29.68219 | -93.56168 | 32451 ft | 514 kts | 93° |
| 2026-05-08 04:18 | 29.68170 | -93.52070 | 32967 ft | 512 kts | 93° |
| 2026-05-08 04:18 | 29.68121 | -93.47963 | 33508 ft | 510 kts | 93° |
| 2026-05-08 04:18 | 29.68072 | -93.43938 | 33964 ft | 510 kts | 93° |
| 2026-05-08 04:19 | 29.68024 | -93.39863 | 34379 ft | 511 kts | 94° |
| 2026-05-08 04:19 | 29.67971 | -93.35771 | 34820 ft | 511 kts | 93° |
| 2026-05-08 04:19 | 29.67915 | -93.31666 | 35249 ft | 510 kts | 94° |
| 2026-05-08 04:19 | 29.67860 | -93.27595 | 35649 ft | 509 kts | 94° |
| 2026-05-08 04:20 | 29.67804 | -93.23505 | 36018 ft | 509 kts | 94° |
| 2026-05-08 04:20 | 29.67746 | -93.19446 | 36354 ft | 509 kts | 94° |
| 2026-05-08 04:20 | 29.67685 | -93.15394 | 36614 ft | 511 kts | 94° |
| 2026-05-08 04:20 | 29.67624 | -93.11283 | 36893 ft | 512 kts | 94° |
| 2026-05-08 04:21 | 29.67562 | -93.07219 | 37173 ft | 513 kts | 94° |
| 2026-05-08 04:21 | 29.67499 | -93.03144 | 37441 ft | 514 kts | 94° |
| 2026-05-08 04:21 | 29.67437 | -92.99014 | 37670 ft | 515 kts | 94° |
| 2026-05-08 04:21 | 29.67372 | -92.94914 | 37879 ft | 517 kts | 94° |
| 2026-05-08 04:22 | 29.67304 | -92.90773 | 38082 ft | 518 kts | 94° |
| 2026-05-08 04:22 | 29.67234 | -92.86686 | 38283 ft | 520 kts | 94° |
| 2026-05-08 04:22 | 29.67167 | -92.82481 | 38484 ft | 521 kts | 94° |
| 2026-05-08 04:22 | 29.67094 | -92.78346 | 38672 ft | 523 kts | 94° |
| 2026-05-08 04:23 | 29.67020 | -92.74152 | 38857 ft | 525 kts | 93° |
| 2026-05-08 04:23 | 29.66950 | -92.69994 | 38994 ft | 526 kts | 94° |
| 2026-05-08 04:23 | 29.66794 | -92.61597 | 38998 ft | 526 kts | 93° |
| 2026-05-08 04:24 | 29.66640 | -92.53209 | 38998 ft | 526 kts | 93° |
| 2026-05-08 04:24 | 29.66478 | -92.44836 | 38998 ft | 526 kts | 94° |
| 2026-05-08 04:25 | 29.65966 | -92.36513 | 39003 ft | 523 kts | 101° |
| 2026-05-08 04:25 | 29.64549 | -92.28345 | 38995 ft | 519 kts | 109° |
| 2026-05-08 04:26 | 29.62839 | -92.20339 | 38989 ft | 518 kts | 109° |
| 2026-05-08 04:26 | 29.61131 | -92.12277 | 38987 ft | 518 kts | 108° |
| 2026-05-08 04:27 | 29.59456 | -92.04274 | 38986 ft | 518 kts | 108° |
| 2026-05-08 04:27 | 29.57777 | -91.96233 | 38983 ft | 518 kts | 108° |
| 2026-05-08 04:28 | 29.56096 | -91.88190 | 38985 ft | 517 kts | 108° |
| 2026-05-08 04:28 | 29.54426 | -91.80235 | 38989 ft | 517 kts | 108° |
| 2026-05-08 04:29 | 29.52734 | -91.72198 | 38993 ft | 516 kts | 108° |
| 2026-05-08 04:29 | 29.51047 | -91.64221 | 38994 ft | 516 kts | 108° |
| 2026-05-08 04:30 | 29.49360 | -91.56259 | 38992 ft | 516 kts | 108° |
| 2026-05-08 04:30 | 29.47661 | -91.48279 | 38991 ft | 516 kts | 107° |
| 2026-05-08 04:31 | 29.45950 | -91.40257 | 38991 ft | 516 kts | 108° |
| 2026-05-08 04:31 | 29.44251 | -91.32307 | 38988 ft | 516 kts | 108° |
| 2026-05-08 04:32 | 29.42530 | -91.24283 | 38991 ft | 516 kts | 108° |
| 2026-05-08 04:32 | 29.40821 | -91.16351 | 38992 ft | 515 kts | 108° |
| 2026-05-08 04:33 | 29.39107 | -91.08410 | 38991 ft | 514 kts | 108° |
| 2026-05-08 04:33 | 29.37384 | -91.00465 | 38992 ft | 515 kts | 108° |
| 2026-05-08 04:34 | 29.35656 | -90.92503 | 38992 ft | 514 kts | 108° |
| 2026-05-08 04:34 | 29.33928 | -90.84580 | 38993 ft | 515 kts | 108° |
| 2026-05-08 04:35 | 29.32192 | -90.76639 | 38995 ft | 514 kts | 108° |
| 2026-05-08 04:35 | 29.30459 | -90.68728 | 38994 ft | 514 kts | 107° |
| 2026-05-08 04:36 | 29.28718 | -90.60806 | 38995 ft | 513 kts | 108° |
| 2026-05-08 04:36 | 29.26970 | -90.52895 | 38996 ft | 514 kts | 107° |
| 2026-05-08 04:37 | 29.25226 | -90.45007 | 38993 ft | 514 kts | 107° |
| 2026-05-08 04:37 | 29.23469 | -90.37089 | 38998 ft | 514 kts | 107° |
| 2026-05-08 04:38 | 29.21713 | -90.29188 | 38997 ft | 513 kts | 108° |
| 2026-05-08 04:38 | 29.19952 | -90.21293 | 38995 ft | 513 kts | 108° |
| 2026-05-08 04:39 | 29.18187 | -90.13409 | 38997 ft | 513 kts | 108° |
| 2026-05-08 04:39 | 29.16480 | -90.05526 | 38994 ft | 513 kts | 106° |
| 2026-05-08 04:40 | 29.14880 | -89.97580 | 38995 ft | 513 kts | 106° |
| 2026-05-08 04:40 | 29.13308 | -89.89797 | 38989 ft | 513 kts | 106° |
| 2026-05-08 04:41 | 29.11691 | -89.81879 | 38987 ft | 513 kts | 106° |
| 2026-05-08 04:41 | 29.10065 | -89.73952 | 38988 ft | 513 kts | 106° |
| 2026-05-08 04:42 | 29.08437 | -89.66055 | 38988 ft | 513 kts | 106° |
| 2026-05-08 04:42 | 29.06795 | -89.58104 | 38989 ft | 513 kts | 106° |
| 2026-05-08 04:43 | 29.05164 | -89.50228 | 38987 ft | 513 kts | 106° |
| 2026-05-08 04:43 | 29.03520 | -89.42326 | 38983 ft | 513 kts | 106° |
| 2026-05-08 04:44 | 29.01869 | -89.34405 | 38988 ft | 512 kts | 107° |
| 2026-05-08 04:44 | 29.00216 | -89.26510 | 38986 ft | 512 kts | 107° |
| 2026-05-08 04:45 | 28.98563 | -89.18639 | 38984 ft | 512 kts | 106° |
| 2026-05-08 04:45 | 28.96901 | -89.10738 | 38989 ft | 512 kts | 106° |
| 2026-05-08 04:46 | 28.95240 | -89.02863 | 38988 ft | 512 kts | 107° |
| 2026-05-08 04:46 | 28.93567 | -88.94968 | 38991 ft | 513 kts | 106° |
| 2026-05-08 04:47 | 28.91900 | -88.87121 | 38988 ft | 513 kts | 106° |
| 2026-05-08 04:47 | 28.90223 | -88.79240 | 38994 ft | 512 kts | 106° |
| 2026-05-08 04:48 | 28.88539 | -88.71388 | 38990 ft | 511 kts | 107° |
| 2026-05-08 04:48 | 28.86505 | -88.63632 | 38994 ft | 510 kts | 110° |
| 2026-05-08 04:49 | 28.84361 | -88.55969 | 38993 ft | 510 kts | 110° |
| 2026-05-08 04:49 | 28.82221 | -88.48292 | 38994 ft | 510 kts | 110° |
| 2026-05-08 04:50 | 28.80073 | -88.40572 | 38996 ft | 508 kts | 110° |
| 2026-05-08 04:50 | 28.77970 | -88.33025 | 38993 ft | 508 kts | 110° |
| 2026-05-08 04:51 | 28.75838 | -88.25391 | 38995 ft | 509 kts | 111° |
| 2026-05-08 04:51 | 28.73696 | -88.17740 | 38997 ft | 509 kts | 111° |
| 2026-05-08 04:52 | 28.71533 | -88.10035 | 38997 ft | 509 kts | 110° |
| 2026-05-08 04:52 | 28.69384 | -88.02409 | 38999 ft | 508 kts | 110° |
| 2026-05-08 04:53 | 28.67221 | -87.94754 | 38999 ft | 508 kts | 111° |
| 2026-05-08 04:53 | 28.65067 | -87.87154 | 39000 ft | 508 kts | 110° |
| 2026-05-08 04:54 | 28.62908 | -87.79536 | 39003 ft | 507 kts | 110° |
| 2026-05-08 04:54 | 28.60731 | -87.71883 | 39006 ft | 507 kts | 110° |
| 2026-05-08 04:55 | 28.58562 | -87.64272 | 39010 ft | 507 kts | 110° |
| 2026-05-08 04:55 | 28.56396 | -87.56687 | 39012 ft | 507 kts | 110° |
| 2026-05-08 04:56 | 28.54215 | -87.49070 | 39012 ft | 506 kts | 110° |
| 2026-05-08 04:56 | 28.52043 | -87.41496 | 39011 ft | 506 kts | 110° |
| 2026-05-08 04:57 | 28.49913 | -87.34086 | 39006 ft | 507 kts | 111° |
| 2026-05-08 04:57 | 28.47723 | -87.26493 | 39007 ft | 506 kts | 111° |
| 2026-05-08 04:58 | 28.45526 | -87.18891 | 39010 ft | 506 kts | 110° |
| 2026-05-08 04:58 | 28.43340 | -87.11339 | 39011 ft | 504 kts | 110° |
| 2026-05-08 04:59 | 28.41153 | -87.03799 | 39012 ft | 504 kts | 110° |
| 2026-05-08 04:59 | 28.38953 | -86.96242 | 39008 ft | 505 kts | 110° |
| 2026-05-08 05:00 | 28.36754 | -86.88695 | 39003 ft | 504 kts | 110° |
| 2026-05-08 05:00 | 28.34548 | -86.81143 | 38997 ft | 504 kts | 110° |
| 2026-05-08 05:01 | 28.32346 | -86.73617 | 38996 ft | 504 kts | 110° |
| 2026-05-08 05:01 | 28.30138 | -86.66087 | 38996 ft | 503 kts | 110° |
| 2026-05-08 05:02 | 28.27946 | -86.58581 | 38996 ft | 504 kts | 110° |
| 2026-05-08 05:02 | 28.25746 | -86.51054 | 38998 ft | 503 kts | 110° |
| 2026-05-08 05:03 | 28.23548 | -86.43556 | 38998 ft | 503 kts | 110° |
| 2026-05-08 05:03 | 28.21345 | -86.36057 | 39000 ft | 503 kts | 110° |
| 2026-05-08 05:04 | 28.19146 | -86.28581 | 39002 ft | 501 kts | 111° |
| 2026-05-08 05:04 | 28.16937 | -86.21099 | 39004 ft | 502 kts | 110° |
| 2026-05-08 05:05 | 28.14723 | -86.13613 | 39006 ft | 502 kts | 110° |
| 2026-05-08 05:05 | 28.12502 | -86.06115 | 39003 ft | 501 kts | 110° |
| 2026-05-08 05:06 | 28.10292 | -85.98674 | 38995 ft | 501 kts | 111° |
| 2026-05-08 05:06 | 28.08067 | -85.91202 | 38992 ft | 500 kts | 110° |
| 2026-05-08 05:07 | 28.05858 | -85.83804 | 38991 ft | 499 kts | 110° |
| 2026-05-08 05:07 | 28.03631 | -85.76353 | 38991 ft | 499 kts | 110° |
| 2026-05-08 05:08 | 28.01406 | -85.68930 | 38991 ft | 499 kts | 110° |
| 2026-05-08 05:08 | 27.99182 | -85.61517 | 38992 ft | 499 kts | 110° |
| 2026-05-08 05:09 | 27.96952 | -85.54103 | 38990 ft | 499 kts | 110° |
| 2026-05-08 05:09 | 27.94710 | -85.46671 | 38991 ft | 500 kts | 110° |
| 2026-05-08 05:10 | 27.91342 | -85.35522 | 38990 ft | 499 kts | 110° |
| 2026-05-08 05:11 | 27.89099 | -85.28063 | 38886 ft | 500 kts | 109° |
| 2026-05-08 05:11 | 27.88166 | -85.24312 | 38532 ft | 498 kts | 104° |
| 2026-05-08 05:11 | 27.87441 | -85.20473 | 38086 ft | 496 kts | 102° |
| 2026-05-08 05:11 | 27.86815 | -85.16704 | 37513 ft | 494 kts | 101° |
| 2026-05-08 05:12 | 27.86200 | -85.12896 | 36876 ft | 493 kts | 101° |
| 2026-05-08 05:12 | 27.85580 | -85.09089 | 36170 ft | 494 kts | 101° |
| 2026-05-08 05:12 | 27.84959 | -85.05308 | 35465 ft | 494 kts | 102° |
| 2026-05-08 05:12 | 27.84323 | -85.01508 | 34759 ft | 495 kts | 102° |
| 2026-05-08 05:13 | 27.83678 | -84.97679 | 34030 ft | 496 kts | 102° |
| 2026-05-08 05:13 | 27.83029 | -84.93841 | 33285 ft | 497 kts | 103° |
| 2026-05-08 05:13 | 27.82386 | -84.90059 | 32585 ft | 499 kts | 102° |
| 2026-05-08 05:13 | 27.81845 | -84.86191 | 32070 ft | 496 kts | 98° |
| 2026-05-08 05:14 | 27.81527 | -84.82340 | 31609 ft | 492 kts | 94° |
| 2026-05-08 05:14 | 27.81442 | -84.78522 | 31183 ft | 487 kts | 89° |
| 2026-05-08 05:14 | 27.81565 | -84.74745 | 30751 ft | 483 kts | 87° |
| 2026-05-08 05:14 | 27.81759 | -84.70943 | 30313 ft | 478 kts | 86° |
| 2026-05-08 05:15 | 27.81955 | -84.67277 | 29877 ft | 474 kts | 86° |
| 2026-05-08 05:15 | 27.82151 | -84.63551 | 29424 ft | 470 kts | 86° |
| 2026-05-08 05:15 | 27.82334 | -84.59916 | 28992 ft | 466 kts | 86° |
| 2026-05-08 05:15 | 27.82511 | -84.56300 | 28564 ft | 462 kts | 86° |
| 2026-05-08 05:16 | 27.82682 | -84.52705 | 28137 ft | 459 kts | 86° |
| 2026-05-08 05:16 | 27.82849 | -84.49127 | 27694 ft | 455 kts | 86° |
| 2026-05-08 05:16 | 27.83015 | -84.45584 | 27253 ft | 453 kts | 86° |
| 2026-05-08 05:16 | 27.83179 | -84.42063 | 26812 ft | 450 kts | 86° |
| 2026-05-08 05:17 | 27.83343 | -84.38515 | 26363 ft | 447 kts | 86° |
| 2026-05-08 05:17 | 27.83501 | -84.35053 | 25945 ft | 443 kts | 86° |
| 2026-05-08 05:17 | 27.83660 | -84.31572 | 25507 ft | 440 kts | 86° |
| 2026-05-08 05:17 | 27.83814 | -84.28155 | 25071 ft | 437 kts | 86° |
| 2026-05-08 05:18 | 27.83969 | -84.24716 | 24636 ft | 434 kts | 87° |
| 2026-05-08 05:18 | 27.84121 | -84.21338 | 24197 ft | 431 kts | 87° |
| 2026-05-08 05:18 | 27.84272 | -84.17951 | 23756 ft | 429 kts | 87° |
| 2026-05-08 05:18 | 27.84420 | -84.14591 | 23327 ft | 426 kts | 87° |
| 2026-05-08 05:19 | 27.84566 | -84.11287 | 22903 ft | 423 kts | 86° |
| 2026-05-08 05:19 | 27.84711 | -84.07952 | 22467 ft | 421 kts | 86° |
| 2026-05-08 05:19 | 27.84856 | -84.04658 | 22048 ft | 419 kts | 86° |
| 2026-05-08 05:19 | 27.84999 | -84.01392 | 21607 ft | 417 kts | 86° |
| 2026-05-08 05:20 | 27.85141 | -83.98109 | 21176 ft | 415 kts | 87° |
| 2026-05-08 05:20 | 27.85278 | -83.94894 | 20752 ft | 413 kts | 87° |
| 2026-05-08 05:20 | 27.85423 | -83.91645 | 20318 ft | 411 kts | 85° |
| 2026-05-08 05:20 | 27.85656 | -83.88455 | 19896 ft | 410 kts | 84° |
| 2026-05-08 05:21 | 27.85921 | -83.85235 | 19473 ft | 408 kts | 84° |
| 2026-05-08 05:21 | 27.86185 | -83.82077 | 19059 ft | 406 kts | 84° |
| 2026-05-08 05:21 | 27.86450 | -83.78899 | 18649 ft | 404 kts | 84° |
| 2026-05-08 05:21 | 27.86709 | -83.75751 | 18234 ft | 402 kts | 84° |
| 2026-05-08 05:22 | 27.86968 | -83.72601 | 17815 ft | 400 kts | 84° |
| 2026-05-08 05:22 | 27.87218 | -83.69516 | 17407 ft | 399 kts | 84° |
| 2026-05-08 05:22 | 27.87470 | -83.66396 | 16998 ft | 396 kts | 84° |
| 2026-05-08 05:22 | 27.87719 | -83.63316 | 16605 ft | 394 kts | 84° |
| 2026-05-08 05:23 | 27.87967 | -83.60216 | 16198 ft | 391 kts | 84° |
| 2026-05-08 05:23 | 27.88209 | -83.57200 | 15789 ft | 389 kts | 84° |
| 2026-05-08 05:23 | 27.88454 | -83.54137 | 15374 ft | 387 kts | 84° |
| 2026-05-08 05:23 | 27.88693 | -83.51128 | 14961 ft | 384 kts | 84° |
| 2026-05-08 05:24 | 27.88933 | -83.48119 | 14553 ft | 382 kts | 85° |
| 2026-05-08 05:24 | 27.89167 | -83.45161 | 14145 ft | 379 kts | 85° |
| 2026-05-08 05:24 | 27.89400 | -83.42204 | 13726 ft | 377 kts | 85° |
| 2026-05-08 05:24 | 27.89630 | -83.39284 | 13305 ft | 375 kts | 85° |
| 2026-05-08 05:25 | 27.89858 | -83.36369 | 12883 ft | 372 kts | 85° |
| 2026-05-08 05:25 | 27.90086 | -83.33442 | 12457 ft | 370 kts | 85° |
| 2026-05-08 05:25 | 27.90309 | -83.30568 | 12031 ft | 367 kts | 85° |
| 2026-05-08 05:25 | 27.90533 | -83.27705 | 11603 ft | 365 kts | 85° |
| 2026-05-08 05:26 | 27.90753 | -83.24863 | 11177 ft | 362 kts | 85° |
| 2026-05-08 05:26 | 27.90972 | -83.22023 | 10758 ft | 359 kts | 85° |
| 2026-05-08 05:26 | 27.91188 | -83.19251 | 10421 ft | 356 kts | 84° |
| 2026-05-08 05:26 | 27.91663 | -83.16510 | 9996 ft | 353 kts | 72° |
| 2026-05-08 05:27 | 27.92594 | -83.13994 | 9926 ft | 350 kts | 63° |
| 2026-05-08 05:27 | 27.93702 | -83.11506 | 9940 ft | 351 kts | 62° |
| 2026-05-08 05:27 | 27.94816 | -83.09056 | 9947 ft | 352 kts | 62° |
| 2026-05-08 05:27 | 27.95929 | -83.06602 | 9950 ft | 352 kts | 62° |
| 2026-05-08 05:28 | 27.97053 | -83.04104 | 9951 ft | 352 kts | 62° |
| 2026-05-08 05:28 | 27.98148 | -83.01653 | 9952 ft | 352 kts | 62° |
| 2026-05-08 05:28 | 27.99259 | -82.99156 | 9953 ft | 352 kts | 62° |
| 2026-05-08 05:28 | 28.00349 | -82.96699 | 9939 ft | 341 kts | 62° |
| 2026-05-08 05:29 | 28.01390 | -82.94348 | 9948 ft | 325 kts | 62° |
| 2026-05-08 05:29 | 28.02382 | -82.92108 | 9941 ft | 310 kts | 62° |
| 2026-05-08 05:29 | 28.03338 | -82.89952 | 9919 ft | 305 kts | 62° |
| 2026-05-08 05:29 | 28.04305 | -82.87772 | 9587 ft | 308 kts | 62° |
| 2026-05-08 05:30 | 28.05256 | -82.85627 | 9211 ft | 308 kts | 62° |
| 2026-05-08 05:30 | 28.06037 | -82.83356 | 8832 ft | 308 kts | 75° |
| 2026-05-08 05:30 | 28.06311 | -82.80946 | 8468 ft | 308 kts | 86° |
| 2026-05-08 05:30 | 28.06373 | -82.78548 | 8201 ft | 304 kts | 88° |
| 2026-05-08 05:31 | 28.06406 | -82.76140 | 7940 ft | 300 kts | 88° |
| 2026-05-08 05:31 | 28.06445 | -82.73788 | 7661 ft | 296 kts | 88° |
| 2026-05-08 05:31 | 28.06493 | -82.71474 | 7403 ft | 292 kts | 88° |
| 2026-05-08 05:31 | 28.06547 | -82.69192 | 7151 ft | 288 kts | 88° |
| 2026-05-08 05:32 | 28.06602 | -82.66938 | 6880 ft | 285 kts | 87° |
| 2026-05-08 05:32 | 28.06672 | -82.64687 | 6568 ft | 283 kts | 84° |
| 2026-05-08 05:32 | 28.07260 | -82.62619 | 6219 ft | 279 kts | 53° |
| 2026-05-08 05:32 | 28.08739 | -82.61266 | 5904 ft | 274 kts | 19° |
| 2026-05-08 05:33 | 28.10603 | -82.60970 | 5677 ft | 266 kts | 357° |
| 2026-05-08 05:33 | 28.12434 | -82.61054 | 5485 ft | 260 kts | 357° |
| 2026-05-08 05:33 | 28.14253 | -82.61110 | 5340 ft | 252 kts | 358° |
| 2026-05-08 05:33 | 28.15997 | -82.61066 | 5167 ft | 247 kts | 9° |
| 2026-05-08 05:34 | 28.17541 | -82.60258 | 5022 ft | 244 kts | 40° |
| 2026-05-08 05:34 | 28.18472 | -82.58710 | 4870 ft | 239 kts | 72° |
| 2026-05-08 05:34 | 28.18654 | -82.56843 | 4711 ft | 234 kts | 90° |
| 2026-05-08 05:34 | 28.18568 | -82.55018 | 4471 ft | 233 kts | 96° |
| 2026-05-08 05:35 | 28.18023 | -82.53275 | 4183 ft | 236 kts | 126° |
| 2026-05-08 05:35 | 28.16768 | -82.52106 | 3957 ft | 232 kts | 160° |
| 2026-05-08 05:35 | 28.15211 | -82.51871 | 3731 ft | 227 kts | 192° |
| 2026-05-08 05:35 | 28.13688 | -82.52331 | 3473 ft | 222 kts | 199° |
| 2026-05-08 05:36 | 28.12202 | -82.52834 | 3056 ft | 223 kts | 198° |
| 2026-05-08 05:36 | 28.10707 | -82.53331 | 2638 ft | 221 kts | 198° |
| 2026-05-08 05:36 | 28.09265 | -82.53755 | 2172 ft | 212 kts | 191° |
| 2026-05-08 05:36 | 28.07814 | -82.53893 | 1727 ft | 206 kts | 184° |
| 2026-05-08 05:37 | 28.06418 | -82.53905 | 1391 ft | 194 kts | 182° |
| 2026-05-08 05:37 | 28.05094 | -82.53926 | 1125 ft | 178 kts | 184° |
| 2026-05-08 05:37 | 28.03924 | -82.53966 | 917 ft | 163 kts | 184° |
| 2026-05-08 05:37 | 28.02818 | -82.54009 | 702 ft | 150 kts | 184° |
| 2026-05-08 05:38 | 28.01811 | -82.54046 | 506 ft | 138 kts | 184° |
| 2026-05-08 05:38 | 28.00880 | -82.54078 | 330 ft | 131 kts | 183° |
| 2026-05-08 05:38 | 27.99965 | -82.54108 | 171 ft | 130 kts | 183° |
| 2026-05-08 05:38 | 27.99068 | -82.54141 | 24 ft | 127 kts | 182° |
| 2026-05-08 05:39 | 27.98297 | -82.54170 | 21 ft | 90 kts | 181° |
| 2026-05-08 05:39 | 27.97753 | -82.54188 | 19 ft | 67 kts | 182° |
| 2026-05-08 05:39 | 27.97333 | -82.54201 | 16 ft | 56 kts | 181° |
| 2026-05-08 05:39 | 27.97004 | -82.54213 | 15 ft | 31 kts | 181° |
| 2026-05-08 05:40 | 27.96913 | -82.54160 | 15 ft | 14 kts | 91° |
| 2026-05-08 05:40 | 27.96970 | -82.54088 | 15 ft | 14 kts | 1° |
| 2026-05-08 05:40 | 27.97077 | -82.54085 | 15 ft | 15 kts | 2° |
| 2026-05-08 05:40 | 27.97188 | -82.54082 | 16 ft | 16 kts | 1° |
| 2026-05-08 05:41 | 27.97301 | -82.54078 | 17 ft | 16 kts | 1° |
| 2026-05-08 05:41 | 27.97417 | -82.54074 | 17 ft | 16 kts | 1° |
| 2026-05-08 05:41 | 27.97517 | -82.54028 | 18 ft | 16 kts | 75° |
| 2026-05-08 05:41 | 27.97496 | -82.53900 | 19 ft | 17 kts | 117° |
| 2026-05-08 05:42 | 27.97430 | -82.53783 | 19 ft | 17 kts | 123° |
| 2026-05-08 05:42 | 27.97374 | -82.53684 | 19 ft | 1 kts | 118° |
| 2026-05-08 05:42 | 27.97374 | -82.53683 | 19 ft | 0 kts | 118° |
| 2026-05-08 05:43 | 27.97371 | -82.53679 | 19 ft | 4 kts | 118° |
| 2026-05-08 05:44 | 27.97341 | -82.53603 | 20 ft | 17 kts | 110° |
| 2026-05-08 05:44 | 27.97315 | -82.53444 | 21 ft | 19 kts | 92° |
| 2026-05-08 05:44 | 27.97310 | -82.53294 | 22 ft | 18 kts | 92° |
| 2026-05-08 05:44 | 27.97306 | -82.53151 | 23 ft | 19 kts | 92° |
| 2026-05-08 05:45 | 27.97388 | -82.53074 | 24 ft | 21 kts | 4° |
| 2026-05-08 05:45 | 27.97529 | -82.53078 | 25 ft | 17 kts | 311° |
| 2026-05-08 05:45 | 27.97649 | -82.53069 | 25 ft | 24 kts | 7° |
| 2026-05-08 05:45 | 27.97826 | -82.53070 | 25 ft | 20 kts | 309° |
| 2026-05-08 05:46 | 27.97789 | -82.53175 | 25 ft | 11 kts | 217° |
| 2026-05-08 05:46 | 27.97769 | -82.53188 | 25 ft | 0 kts | 208° |